Horton, Kansas
Current Conditions -  °F | °C
As of 8:53 PM on Friday 21 Nov 2014 (Local Time) from KFNB Reporting Station
Overcast Overcast  
Wind Chill: 32°   Ceiling: 800
Heat Index: 36°   Visibility: 7mi
Dew Point: 33°   Wind: 5mph
Humidity: 89%   Direction: 130°SE
Pressure: 30.05"   Gusts: NA
Location:  39.66°N, 95.53°W
Report Text: KFNB 220253Z AUTO 13004KT 7SM OVC008 02/01 A3005 RMK AO2 SLP185 T00220006 58010
Loading
Personal Weather Stations






























Interactive Weather Map New forecast layout! Learn more

10-Day Weather Forecast

Advertisements
Track Severe Weather on mobile